createdAt,value
2018-05-31T00:02:51.115Z,57.10
2018-05-31T00:06:53.784Z,57.30
2018-05-31T00:10:56.456Z,57.10
2018-05-31T00:14:59.113Z,56.90
2018-05-31T00:19:01.769Z,57.70
2018-05-31T00:23:05.212Z,57.10
2018-05-31T00:27:07.893Z,57.10
2018-05-31T00:31:11.315Z,57.30
2018-05-31T00:35:13.974Z,57.30
2018-05-31T00:39:16.636Z,57.50
2018-05-31T00:43:19.301Z,57.40
2018-05-31T00:47:21.963Z,57.50
2018-05-31T00:51:24.648Z,57.20
2018-05-31T00:55:39.052Z,57.70
2018-05-31T00:59:41.724Z,57.40
2018-05-31T01:03:44.392Z,58.20
2018-05-31T01:07:47.831Z,57.60
2018-05-31T01:11:50.534Z,57.50
2018-05-31T01:15:53.160Z,57.40
2018-05-31T01:19:55.813Z,57.50
2018-05-31T01:23:58.469Z,57.80
2018-05-31T01:28:01.184Z,57.50
2018-05-31T01:32:03.870Z,57.40
2018-05-31T01:36:06.504Z,57.70
2018-05-31T01:40:09.952Z,58.00
2018-05-31T01:44:12.625Z,57.90
2018-05-31T01:48:15.298Z,57.60
2018-05-31T01:52:18.733Z,57.70
2018-05-31T01:56:21.407Z,57.60
2018-05-31T02:00:24.077Z,57.60
2018-05-31T02:04:27.522Z,57.70
2018-05-31T02:08:30.213Z,57.70
2018-05-31T02:12:32.845Z,57.60
2018-05-31T02:16:35.501Z,57.60
2018-05-31T02:20:38.155Z,57.60
2018-05-31T02:24:40.829Z,57.80
2018-05-31T02:28:43.513Z,57.60
2018-05-31T02:32:46.912Z,57.70
2018-05-31T02:36:49.577Z,57.60
2018-05-31T02:40:52.260Z,57.90
2018-05-31T02:44:54.938Z,57.60
2018-05-31T02:48:57.680Z,57.80
2018-05-31T02:53:01.088Z,57.80
2018-05-31T03:01:08.966Z,58.10
2018-05-31T03:05:11.623Z,58.10
2018-05-31T03:09:14.316Z,58.10
2018-05-31T03:13:17.705Z,58.00
2018-05-31T03:17:20.368Z,58.00
2018-05-31T03:21:23.033Z,58.80
2018-05-31T03:25:25.693Z,58.00
2018-05-31T03:29:28.332Z,58.10
2018-05-31T03:33:31.006Z,58.50
2018-05-31T03:37:33.676Z,58.50
2018-05-31T03:41:36.338Z,58.10
2018-05-31T03:45:39.009Z,58.20
2018-05-31T03:49:41.700Z,58.20
2018-05-31T03:53:44.368Z,58.70
2018-05-31T03:57:47.036Z,58.40
2018-05-31T04:01:49.702Z,58.60
2018-05-31T04:05:52.365Z,58.80
2018-05-31T04:09:55.758Z,59.50
2018-05-31T04:13:58.432Z,59.40
2018-05-31T04:18:01.097Z,59.10
2018-05-31T04:22:03.774Z,59.80
2018-05-31T04:26:06.449Z,59.20
2018-05-31T04:30:09.079Z,59.90
2018-05-31T04:34:11.753Z,60.60
2018-05-31T04:38:14.420Z,61.00
2018-05-31T04:42:17.100Z,60.30
2018-05-31T04:46:19.826Z,61.30
2018-05-31T04:50:22.476Z,60.70
2018-05-31T04:54:25.182Z,60.80
2018-05-31T04:58:27.848Z,61.10
2018-05-31T05:02:31.281Z,60.40
2018-05-31T05:06:33.971Z,60.40
2018-05-31T05:10:36.594Z,61.20
2018-05-31T05:14:39.256Z,60.50
2018-05-31T05:18:41.940Z,60.50
2018-05-31T05:22:44.601Z,61.10
2018-05-31T05:26:48.025Z,61.00
2018-05-31T05:30:51.004Z,60.80
2018-05-31T05:34:53.706Z,61.40
2018-05-31T05:38:56.449Z,62.50
2018-05-31T05:42:59.129Z,62.20
2018-05-31T05:47:01.797Z,60.40
2018-05-31T05:51:04.423Z,60.10
2018-05-31T05:55:07.090Z,60.20
2018-05-31T05:59:09.762Z,60.10
2018-05-31T06:03:12.441Z,60.40
2018-05-31T06:07:15.098Z,59.90
2018-05-31T06:11:18.498Z,60.30
2018-05-31T06:15:21.148Z,60.20
2018-05-31T06:19:23.806Z,60.60
2018-05-31T06:23:26.473Z,62.90
2018-05-31T06:27:29.893Z,62.70
2018-05-31T06:31:32.512Z,62.60
2018-05-31T06:35:35.182Z,62.90
2018-05-31T06:39:37.829Z,60.70
2018-05-31T06:43:40.468Z,59.50
2018-05-31T06:47:43.169Z,58.50
2018-05-31T06:51:46.548Z,58.30
2018-05-31T06:55:49.197Z,58.20
2018-05-31T06:59:51.845Z,57.70
2018-05-31T07:03:54.505Z,56.60
2018-05-31T07:07:57.914Z,55.80
2018-05-31T07:12:00.548Z,55.60
2018-05-31T07:16:03.238Z,55.40
2018-05-31T07:20:05.880Z,56.00
2018-05-31T07:24:09.287Z,54.10
2018-05-31T07:28:12.711Z,53.80
2018-05-31T07:32:15.376Z,53.70
2018-05-31T07:36:18.836Z,53.10
2018-05-31T07:40:21.461Z,53.00
2018-05-31T07:44:24.155Z,52.70
2018-05-31T07:48:26.812Z,51.40
2018-05-31T07:52:29.417Z,51.60
2018-05-31T07:56:32.053Z,51.30
2018-05-31T08:00:34.696Z,51.30
2018-05-31T08:04:37.335Z,50.70
2018-05-31T08:08:39.981Z,48.90
2018-05-31T08:12:43.357Z,49.60
2018-05-31T08:16:45.996Z,49.90
2018-05-31T08:20:49.368Z,49.10
2018-05-31T08:24:52.008Z,49.40
2018-05-31T08:28:54.644Z,49.50
2018-05-31T08:32:57.245Z,49.30
2018-05-31T08:37:00.648Z,50.00
2018-05-31T08:41:04.048Z,49.60
2018-05-31T08:45:06.696Z,49.50
2018-05-31T08:49:09.348Z,49.30
2018-05-31T08:53:12.712Z,49.20
2018-05-31T08:57:15.361Z,49.20
2018-05-31T09:04:33.733Z,49.30
2018-05-31T09:08:36.344Z,47.80
2018-05-31T09:12:38.975Z,48.90
2018-05-31T09:16:41.608Z,48.50
2018-05-31T09:20:44.252Z,48.20
2018-05-31T09:24:46.888Z,48.10
2018-05-31T09:28:50.223Z,48.60
2018-05-31T09:32:52.926Z,49.10
2018-05-31T09:36:55.578Z,49.50
2018-05-31T09:40:58.216Z,49.90
2018-05-31T09:45:00.890Z,50.40
2018-05-31T09:49:14.130Z,51.00
2018-05-31T09:53:16.766Z,51.50
2018-05-31T09:57:19.445Z,51.10
2018-05-31T10:01:22.083Z,51.30
2018-05-31T10:05:24.738Z,51.90
2018-05-31T10:09:27.347Z,51.90
2018-05-31T10:13:30.007Z,51.90
2018-05-31T10:17:32.651Z,52.10
2018-05-31T10:21:35.299Z,52.40
2018-05-31T10:25:37.952Z,52.30
2018-05-31T10:29:40.562Z,52.20
2018-05-31T10:33:43.397Z,52.50
2018-05-31T10:37:46.037Z,52.60
2018-05-31T10:41:48.671Z,52.40
2018-05-31T10:45:51.480Z,52.50
2018-05-31T10:49:54.092Z,52.80
2018-05-31T10:53:56.750Z,52.80
2018-05-31T10:57:59.389Z,52.90
2018-05-31T11:02:02.034Z,51.50
2018-05-31T11:06:04.645Z,52.60
2018-05-31T11:10:07.301Z,52.50
2018-05-31T11:14:09.953Z,52.90
2018-05-31T11:22:16.524Z,52.70
2018-05-31T11:26:19.906Z,52.00
2018-05-31T11:30:22.544Z,51.90
2018-05-31T11:34:25.226Z,52.50
2018-05-31T11:38:27.865Z,52.50
2018-05-31T11:42:30.513Z,52.30
2018-05-31T11:46:33.116Z,52.70
2018-05-31T11:50:35.753Z,52.10
2018-05-31T11:54:39.158Z,52.10
2018-05-31T11:58:42.561Z,51.30
2018-05-31T12:02:45.977Z,51.60
2018-05-31T12:06:49.365Z,52.30
2018-05-31T12:10:52.018Z,52.30
2018-05-31T12:14:54.681Z,51.00
2018-05-31T12:18:57.347Z,52.20
2018-05-31T12:23:00.751Z,52.40
2018-05-31T12:27:04.153Z,52.50
2018-05-31T12:31:07.562Z,50.60
2018-05-31T12:35:10.966Z,51.00
2018-05-31T12:39:14.372Z,51.00
2018-05-31T12:43:17.739Z,51.30
2018-05-31T12:47:20.384Z,51.00
2018-05-31T12:51:23.021Z,50.30
2018-05-31T12:55:25.660Z,51.70
2018-05-31T12:59:28.309Z,51.90
2018-05-31T13:03:30.921Z,48.90
2018-05-31T13:07:34.333Z,48.60
2018-05-31T13:11:36.972Z,48.60
2018-05-31T13:15:39.612Z,50.30
2018-05-31T13:19:43.048Z,48.40
2018-05-31T13:23:45.650Z,48.30
2018-05-31T13:27:48.284Z,48.00
2018-05-31T13:31:51.691Z,49.30
2018-05-31T13:35:55.096Z,48.60
2018-05-31T13:39:58.505Z,47.20
2018-05-31T13:44:01.879Z,46.30
2018-05-31T13:48:04.520Z,46.00
2018-05-31T13:52:07.165Z,49.10
2018-05-31T13:56:09.824Z,47.50
2018-05-31T14:00:12.421Z,49.30
2018-05-31T14:04:15.124Z,49.10
2018-05-31T14:08:18.574Z,47.80
2018-05-31T14:12:21.203Z,47.90
2018-05-31T14:20:21.820Z,47.20
2018-05-31T14:24:24.495Z,45.10
2018-05-31T14:28:27.905Z,48.20
2018-05-31T14:32:31.372Z,45.80
2018-05-31T14:40:34.071Z,48.50
2018-05-31T14:44:36.704Z,46.50
2018-05-31T14:48:39.349Z,46.60
2018-05-31T14:52:42.000Z,48.30
2018-05-31T14:56:45.427Z,47.10
2018-05-31T15:00:48.041Z,47.10
2018-05-31T15:04:50.672Z,46.80
2018-05-31T15:12:47.247Z,47.40
2018-05-31T15:16:50.673Z,47.90
2018-05-31T15:20:54.051Z,47.20
2018-05-31T15:24:57.464Z,46.90
2018-05-31T15:29:00.880Z,46.00
2018-05-31T15:33:04.288Z,44.50
2018-05-31T15:37:08.658Z,45.60
2018-05-31T15:41:11.298Z,45.40
2018-05-31T15:45:14.696Z,46.30
2018-05-31T15:49:18.156Z,46.30
2018-05-31T15:53:20.837Z,46.20
2018-05-31T15:57:23.428Z,47.20
2018-05-31T16:01:26.061Z,46.80
2018-05-31T16:05:28.705Z,48.00
2018-05-31T16:09:31.353Z,47.90
2018-05-31T16:13:34.882Z,48.60
2018-05-31T16:17:37.497Z,48.50
2018-05-31T16:21:40.138Z,48.20
2018-05-31T16:25:43.543Z,48.50
2018-05-31T16:29:46.953Z,48.60
2018-05-31T16:33:50.389Z,48.70
2018-05-31T16:37:53.066Z,48.70
2018-05-31T16:41:55.704Z,48.10
2018-05-31T16:45:58.349Z,48.80
2018-05-31T16:50:00.998Z,48.90
2018-05-31T16:54:04.429Z,48.70
2018-05-31T16:58:07.109Z,48.70
2018-05-31T17:02:10.517Z,48.90
2018-05-31T17:06:13.921Z,48.80
2018-05-31T17:10:17.331Z,48.80
2018-05-31T17:14:20.006Z,48.80
2018-05-31T17:18:23.378Z,48.90
2018-05-31T17:22:26.041Z,48.90
2018-05-31T17:26:28.691Z,48.80
2018-05-31T17:30:32.093Z,48.90
2018-05-31T17:34:35.505Z,49.40
2018-05-31T17:38:38.150Z,48.90
2018-05-31T17:42:40.796Z,49.00
2018-05-31T17:46:44.293Z,49.20
2018-05-31T17:50:47.776Z,49.30
2018-05-31T17:54:50.430Z,49.30
2018-05-31T17:58:53.076Z,49.50
2018-05-31T18:02:56.495Z,48.80
2018-05-31T18:07:00.643Z,48.60
2018-05-31T18:11:03.635Z,48.30
2018-05-31T18:15:06.281Z,49.00
2018-05-31T18:23:08.519Z,49.70
2018-05-31T18:27:11.157Z,51.00
2018-05-31T18:31:13.798Z,51.40
2018-05-31T18:35:16.511Z,50.80
2018-05-31T18:39:19.890Z,53.00
2018-05-31T18:43:22.542Z,53.00
2018-05-31T18:47:25.227Z,52.30
2018-05-31T18:51:27.891Z,52.00
2018-05-31T18:59:32.528Z,52.20
2018-05-31T19:03:35.220Z,53.50
2018-05-31T19:07:37.869Z,53.20
2018-05-31T19:11:41.277Z,52.70
2018-05-31T19:15:44.688Z,52.80
2018-05-31T19:19:53.754Z,52.70
2018-05-31T19:23:57.160Z,52.20
2018-05-31T19:27:59.805Z,52.40
2018-05-31T19:32:02.452Z,52.40
2018-05-31T19:36:10.704Z,52.60
2018-05-31T19:40:13.376Z,52.40
2018-05-31T19:44:21.724Z,52.50
2018-05-31T19:48:24.376Z,52.20
2018-05-31T19:52:32.747Z,52.40
2018-05-31T19:56:36.165Z,52.20
2018-05-31T20:00:45.233Z,52.40
2018-05-31T20:04:47.878Z,52.40
2018-05-31T20:08:50.573Z,52.80
2018-05-31T20:12:53.980Z,53.40
2018-05-31T20:16:57.396Z,53.20
2018-05-31T20:21:00.790Z,53.00
2018-05-31T20:25:04.202Z,52.90
2018-05-31T20:29:07.673Z,52.90
2018-05-31T20:33:10.328Z,52.80
2018-05-31T20:37:12.981Z,52.90
2018-05-31T20:41:16.363Z,53.90
2018-05-31T20:45:19.070Z,53.80
2018-05-31T20:49:21.721Z,53.40
2018-05-31T20:53:24.382Z,53.50
2018-05-31T20:57:27.030Z,53.30
2018-05-31T21:01:29.650Z,53.30
2018-05-31T21:05:32.355Z,53.40
2018-05-31T21:09:35.752Z,53.20
2018-05-31T21:13:38.477Z,53.20
2018-05-31T21:17:41.136Z,53.30
2018-05-31T21:21:43.756Z,53.40
2018-05-31T21:25:46.414Z,53.40
2018-05-31T21:29:49.058Z,53.50
2018-05-31T21:33:51.708Z,53.50
2018-05-31T21:37:54.357Z,53.50
2018-05-31T21:41:57.003Z,53.50
2018-05-31T21:45:59.649Z,53.60
2018-05-31T21:50:02.346Z,53.60
2018-05-31T21:54:04.992Z,53.90
2018-05-31T21:58:07.645Z,53.90
2018-05-31T22:02:10.263Z,53.90
2018-05-31T22:06:12.913Z,53.80
2018-05-31T22:10:15.612Z,54.00
2018-05-31T22:14:18.316Z,53.90
2018-05-31T22:18:20.964Z,53.90
2018-05-31T22:22:23.585Z,53.90
2018-05-31T22:26:26.232Z,54.00
2018-05-31T22:30:28.886Z,54.30
2018-05-31T22:34:31.528Z,54.20
2018-05-31T22:38:34.176Z,54.20
2018-05-31T22:42:37.561Z,54.80
2018-05-31T22:46:40.217Z,54.80
2018-05-31T22:50:42.867Z,55.00
2018-05-31T22:54:46.304Z,55.10
2018-05-31T22:58:48.952Z,55.10
2018-05-31T23:02:52.330Z,55.50
2018-05-31T23:06:54.984Z,54.80
2018-05-31T23:10:57.639Z,54.80
2018-05-31T23:15:01.053Z,55.50
2018-05-31T23:19:04.533Z,54.80
2018-05-31T23:23:07.213Z,54.70
2018-05-31T23:27:09.871Z,54.80
2018-05-31T23:31:12.516Z,54.80
2018-05-31T23:35:15.934Z,54.70
2018-05-31T23:39:18.589Z,54.60
2018-05-31T23:43:21.209Z,55.00
2018-05-31T23:47:24.632Z,55.60
2018-05-31T23:51:27.289Z,55.60
2018-05-31T23:55:30.704Z,55.40
2018-05-31T23:59:34.125Z,55.90
